Time;durP1;ratioP1;P1;durP2;ratioP2;P2;SDS_P1;SDS_P2;PMS_P1;PMS_P2;Temp;Humidity;BMP_temperature;BMP_pressure;BME280_temperature;BME280_humidity;BME280_pressure;Samples;Min_cycle;Max_cycle;Signal;HPM_P1;HPM_P2
2022/07/10 00:00:37;;;;;;;0.57;0.57;;;14.60;99.90;;;;;;4994644;28;20275;-59
2022/07/10 00:03:04;;;;;;;0.60;0.60;;;14.60;99.90;;;;;;4994561;28;20178;-59
2022/07/10 00:05:30;;;;;;;1.10;0.80;;;14.50;99.90;;;;;;4994388;28;20213;-59
2022/07/10 00:07:56;;;;;;;1.55;0.68;;;14.40;99.90;;;;;;4994505;28;20666;-60
2022/07/10 00:10:23;;;;;;;0.50;0.50;;;14.40;99.90;;;;;;4994357;28;20173;-59
2022/07/10 00:12:51;;;;;;;0.47;0.47;;;14.40;99.90;;;;;;4994079;28;20197;-59
2022/07/10 00:15:18;;;;;;;1.95;0.73;;;14.50;99.90;;;;;;4994266;28;20181;-59
2022/07/10 00:17:44;;;;;;;0.90;0.70;;;14.50;99.90;;;;;;4994467;28;20280;-59
2022/07/10 00:20:11;;;;;;;0.73;0.60;;;14.60;99.90;;;;;;4994238;28;20185;-59
2022/07/10 00:22:38;;;;;;;0.90;0.70;;;14.50;99.90;;;;;;4992235;28;20721;-59
2022/07/10 00:25:05;;;;;;;1.02;0.63;;;14.50;99.90;;;;;;4994100;28;20180;-59
2022/07/10 00:27:31;;;;;;;0.52;0.52;;;14.60;99.90;;;;;;4992861;28;20181;-59
2022/07/10 00:29:56;;;;;;;0.80;0.80;;;14.50;99.90;;;;;;4994003;28;20181;-58
2022/07/10 00:32:23;;;;;;;0.52;0.52;;;14.50;99.90;;;;;;4992984;28;20713;-59
2022/07/10 00:34:49;;;;;;;0.43;0.43;;;14.50;99.90;;;;;;4994147;28;20321;-59
2022/07/10 00:37:14;;;;;;;0.90;0.65;;;14.50;99.90;;;;;;4992859;28;20197;-59
2022/07/10 00:39:40;;;;;;;0.50;0.50;;;14.40;99.90;;;;;;4994003;28;20216;-59
2022/07/10 00:42:13;;;;;;;0.57;0.57;;;14.30;99.90;;;;;;4993961;28;20173;-59
2022/07/10 00:44:43;;;;;;;0.68;0.68;;;14.40;99.90;;;;;;4992515;28;20180;-59
2022/07/10 00:47:10;;;;;;;0.75;0.60;;;14.40;99.90;;;;;;4993817;28;20209;-60
2022/07/10 00:49:38;;;;;;;0.75;0.73;;;14.40;99.90;;;;;;4993705;28;20512;-59
2022/07/10 00:52:07;;;;;;;0.43;0.43;;;14.40;99.90;;;;;;4993913;28;20170;-59
2022/07/10 00:54:36;;;;;;;1.10;0.95;;;14.50;99.90;;;;;;4992570;28;20174;-59
2022/07/10 00:57:05;;;;;;;0.50;0.50;;;14.50;99.90;;;;;;4993637;28;20642;-59
2022/07/10 00:59:31;;;;;;;0.80;0.60;;;14.50;99.90;;;;;;4993930;28;20173;-59
2022/07/10 01:01:57;;;;;;;0.65;0.60;;;14.40;99.90;;;;;;4993784;28;20191;-59
2022/07/10 01:04:23;;;;;;;1.00;0.85;;;14.50;99.90;;;;;;4993757;28;20545;-59
2022/07/10 01:06:49;;;;;;;0.85;0.55;;;14.50;99.90;;;;;;4992533;28;20219;-59
2022/07/10 01:09:15;;;;;;;1.05;0.50;;;14.40;99.90;;;;;;4993716;28;20578;-59
2022/07/10 01:11:40;;;;;;;0.70;0.70;;;14.50;99.90;;;;;;4993601;28;20192;-59
2022/07/10 01:14:06;;;;;;;0.60;0.60;;;14.40;99.90;;;;;;4993796;28;20229;-60
2022/07/10 01:16:32;;;;;;;0.68;0.68;;;14.30;99.90;;;;;;4993381;28;20193;-59
2022/07/10 01:18:58;;;;;;;0.40;0.40;;;14.30;99.90;;;;;;4993496;28;20184;-59
2022/07/10 01:21:27;;;;;;;0.50;0.50;;;14.30;99.90;;;;;;4993532;28;20623;-60
2022/07/10 01:23:53;;;;;;;0.60;0.60;;;14.30;99.90;;;;;;4993489;28;20201;-59
2022/07/10 01:26:21;;;;;;;0.70;0.70;;;14.30;99.90;;;;;;4993309;28;20247;-61
2022/07/10 01:28:49;;;;;;;0.70;0.70;;;14.10;99.90;;;;;;4993635;28;20173;-59
2022/07/10 01:31:14;;;;;;;0.60;0.60;;;14.00;99.90;;;;;;4993419;28;20177;-59
2022/07/10 01:33:40;;;;;;;0.70;0.70;;;14.00;99.90;;;;;;4993844;28;20543;-59
2022/07/10 01:36:07;;;;;;;0.82;0.82;;;13.90;99.90;;;;;;4997088;28;20536;-59
2022/07/10 01:38:33;;;;;;;0.70;0.70;;;13.90;99.90;;;;;;4995896;28;20678;-59
2022/07/10 01:40:58;;;;;;;0.70;0.68;;;13.80;99.90;;;;;;4996861;28;20210;-61
2022/07/10 01:43:24;;;;;;;0.63;0.47;;;13.70;99.90;;;;;;4997120;28;20380;-59
2022/07/10 01:45:51;;;;;;;0.70;0.70;;;13.60;99.90;;;;;;4996825;28;20304;-59
2022/07/10 01:48:16;;;;;;;1.00;0.88;;;13.60;99.90;;;;;;4996948;28;20866;-59
2022/07/10 01:50:43;;;;;;;1.20;0.60;;;13.60;99.90;;;;;;4996887;28;20184;-60
2022/07/10 01:53:10;;;;;;;1.27;0.80;;;13.60;99.90;;;;;;4996831;28;20189;-62
2022/07/10 01:55:37;;;;;;;0.50;0.50;;;13.60;99.90;;;;;;4996518;28;20192;-59
2022/07/10 01:58:03;;;;;;;0.60;0.60;;;13.60;99.90;;;;;;4996823;28;20174;-59
2022/07/10 02:00:28;;;;;;;1.30;0.85;;;13.50;99.90;;;;;;4997043;28;20200;-59
2022/07/10 02:05:38;;;;;;;0.65;0.63;;;13.40;99.90;;;;;;4995687;28;20240;-59
2022/07/10 02:08:06;;;;;;;0.52;0.52;;;13.30;99.90;;;;;;4996483;28;20185;-59
2022/07/10 02:10:31;;;;;;;0.82;0.70;;;13.40;99.90;;;;;;4996653;28;20277;-59
2022/07/10 02:12:58;;;;;;;0.60;0.60;;;13.40;99.90;;;;;;4996574;28;20213;-59
2022/07/10 02:15:24;;;;;;;0.60;0.60;;;13.40;99.90;;;;;;4996602;28;20293;-58
2022/07/10 02:17:49;;;;;;;1.13;0.50;;;13.30;99.90;;;;;;4996250;28;20674;-59
2022/07/10 02:20:15;;;;;;;0.50;0.50;;;13.20;99.90;;;;;;4995113;28;20174;-59
2022/07/10 02:22:42;;;;;;;0.73;0.70;;;13.30;99.90;;;;;;4996245;28;20707;-59
2022/07/10 02:25:08;;;;;;;0.60;0.57;;;13.20;99.90;;;;;;4995062;28;20185;-59
2022/07/10 02:27:34;;;;;;;0.57;0.57;;;13.10;99.90;;;;;;4996226;28;20215;-60
2022/07/10 02:30:00;;;;;;;0.60;0.60;;;13.00;99.90;;;;;;4996071;28;20637;-58
2022/07/10 02:32:25;;;;;;;0.70;0.70;;;12.90;99.90;;;;;;4996060;28;20177;-59
2022/07/10 02:34:51;;;;;;;0.80;0.80;;;12.90;99.90;;;;;;4996054;28;20181;-59
2022/07/10 02:37:17;;;;;;;0.70;0.70;;;12.80;99.90;;;;;;4995922;28;20188;-59
2022/07/10 02:39:43;;;;;;;0.60;0.60;;;12.90;99.90;;;;;;4996104;28;20674;-59
2022/07/10 02:42:08;;;;;;;0.57;0.57;;;13.00;99.90;;;;;;4996032;28;20177;-60
2022/07/10 02:44:34;;;;;;;0.52;0.52;;;13.00;99.90;;;;;;4995723;28;20173;-59
2022/07/10 02:47:00;;;;;;;0.63;0.63;;;13.10;99.90;;;;;;4994889;28;20213;-57
2022/07/10 02:49:25;;;;;;;1.45;0.90;;;13.20;99.90;;;;;;4995711;28;20177;-59
2022/07/10 02:51:52;;;;;;;0.88;0.65;;;13.10;99.90;;;;;;4995560;28;20247;-59
2022/07/10 02:54:17;;;;;;;1.88;0.80;;;13.20;99.90;;;;;;4995849;28;20504;-59
2022/07/10 02:56:43;;;;;;;0.60;0.60;;;13.20;99.90;;;;;;4995772;28;20240;-59
2022/07/10 02:59:09;;;;;;;0.88;0.70;;;13.10;99.90;;;;;;4995813;28;20177;-60
2022/07/10 03:01:34;;;;;;;0.60;0.60;;;13.10;99.90;;;;;;4994415;28;20300;-59
2022/07/10 03:04:01;;;;;;;0.60;0.60;;;13.20;99.90;;;;;;4995529;28;20173;-59
2022/07/10 03:06:27;;;;;;;0.85;0.73;;;13.20;99.90;;;;;;4993981;28;20899;-59
2022/07/10 03:08:52;;;;;;;0.75;0.75;;;13.20;99.90;;;;;;4995585;28;20227;-59
2022/07/10 03:11:18;;;;;;;0.70;0.70;;;13.20;99.90;;;;;;4995277;28;20260;-59
2022/07/10 03:13:44;;;;;;;1.08;0.75;;;13.10;99.90;;;;;;4995350;28;20180;-59
2022/07/10 03:16:09;;;;;;;0.50;0.50;;;13.10;99.90;;;;;;4993826;28;20648;-59
2022/07/10 03:18:35;;;;;;;1.75;0.70;;;13.10;99.90;;;;;;4995379;28;20186;-59
2022/07/10 03:21:01;;;;;;;0.52;0.50;;;13.00;99.90;;;;;;4995292;28;20173;-60
2022/07/10 03:23:26;;;;;;;0.30;0.30;;;12.90;99.90;;;;;;4995300;28;20216;-59
2022/07/10 03:25:52;;;;;;;0.93;0.63;;;12.90;99.90;;;;;;4995125;28;20231;-59
2022/07/10 03:28:18;;;;;;;0.80;0.65;;;12.90;99.90;;;;;;4995253;28;20174;-59
2022/07/10 03:30:43;;;;;;;1.17;0.50;;;12.80;99.90;;;;;;4994977;28;20224;-59
2022/07/10 03:33:09;;;;;;;0.68;0.60;;;12.80;99.90;;;;;;4994795;28;20272;-59
2022/07/10 03:35:35;;;;;;;0.45;0.40;;;12.70;99.90;;;;;;4994802;28;20185;-60
2022/07/10 03:38:00;;;;;;;0.68;0.60;;;12.70;99.90;;;;;;4994790;28;20224;-61
2022/07/10 03:40:27;;;;;;;0.70;0.70;;;12.80;99.90;;;;;;4994770;28;20228;-59
2022/07/10 03:42:53;;;;;;;0.55;0.55;;;12.80;99.90;;;;;;4994851;28;20174;-59
2022/07/10 03:45:18;;;;;;;0.60;0.60;;;12.80;99.90;;;;;;4993501;28;20182;-60
2022/07/10 03:47:44;;;;;;;1.25;0.70;;;12.70;99.90;;;;;;4994702;28;20221;-59
2022/07/10 03:50:10;;;;;;;0.57;0.57;;;12.80;99.90;;;;;;4994768;28;20185;-60
2022/07/10 03:52:35;;;;;;;1.67;0.80;;;12.80;99.90;;;;;;4977538;28;20184;-60
2022/07/10 03:55:01;;;;;;;0.77;0.75;;;12.70;99.90;;;;;;4994647;28;20201;-59
2022/07/10 04:00:12;;;;;;;1.08;0.93;;;12.70;99.90;;;;;;4994708;28;20280;-59
2022/07/10 04:02:38;;;;;;;0.63;0.63;;;12.70;99.90;;;;;;4994368;28;20260;-59
2022/07/10 04:05:08;;;;;;;0.60;0.52;;;12.80;99.90;;;;;;4994578;28;20205;-62
2022/07/10 04:07:35;;;;;;;1.05;0.57;;;12.80;99.90;;;;;;4994390;28;20216;-59
2022/07/10 04:10:02;;;;;;;0.90;0.75;;;12.80;99.90;;;;;;4994438;28;20264;-61
2022/07/10 04:12:30;;;;;;;0.82;0.73;;;12.90;99.90;;;;;;4993177;28;20177;-62
2022/07/10 04:14:56;;;;;;;0.60;0.60;;;12.90;99.90;;;;;;4993000;28;20245;-61
2022/07/10 04:17:22;;;;;;;0.50;0.40;;;12.90;99.90;;;;;;4994367;28;20189;-61
2022/07/10 04:19:47;;;;;;;0.43;0.43;;;12.90;99.90;;;;;;4994368;28;20184;-60
2022/07/10 04:22:13;;;;;;;0.57;0.57;;;12.90;99.90;;;;;;4994201;28;20184;-61
2022/07/10 04:24:39;;;;;;;0.50;0.50;;;13.00;99.90;;;;;;4992860;28;20169;-62
2022/07/10 04:27:06;;;;;;;0.80;0.43;;;13.00;99.90;;;;;;4994018;28;20225;-61
2022/07/10 04:29:32;;;;;;;2.22;1.00;;;13.00;99.90;;;;;;4993895;28;20181;-61
2022/07/10 04:31:58;;;;;;;0.88;0.70;;;13.10;99.90;;;;;;4993932;28;20172;-61
2022/07/10 04:34:23;;;;;;;0.50;0.50;;;13.20;99.90;;;;;;4994319;28;20200;-60
2022/07/10 04:36:49;;;;;;;0.75;0.70;;;13.30;99.90;;;;;;4994267;28;20193;-60
2022/07/10 04:39:15;;;;;;;0.82;0.82;;;13.30;99.90;;;;;;4994030;28;20191;-61
2022/07/10 04:41:40;;;;;;;0.80;0.60;;;13.40;99.90;;;;;;4993848;28;20579;-61
2022/07/10 04:44:06;;;;;;;0.95;0.90;;;13.50;99.90;;;;;;4993927;28;20174;-61
2022/07/10 04:46:32;;;;;;;0.88;0.85;;;13.50;99.90;;;;;;4994218;28;20213;-61
2022/07/10 04:48:57;;;;;;;0.85;0.70;;;13.50;99.90;;;;;;4993982;28;20181;-61
2022/07/10 04:51:23;;;;;;;1.65;0.77;;;13.60;99.90;;;;;;4994162;28;20646;-61
2022/07/10 04:53:49;;;;;;;0.70;0.70;;;13.70;99.90;;;;;;4992701;28;20186;-60
2022/07/10 04:56:15;;;;;;;0.60;0.60;;;13.70;99.90;;;;;;4993722;28;20177;-61
2022/07/10 04:58:41;;;;;;;0.95;0.60;;;13.70;99.90;;;;;;4992480;28;20240;-60
2022/07/10 05:01:06;;;;;;;0.88;0.60;;;13.80;99.90;;;;;;4992458;28;20670;-61
2022/07/10 05:03:32;;;;;;;1.15;0.75;;;13.90;99.90;;;;;;4993077;28;20240;-61
2022/07/10 05:05:58;;;;;;;1.60;0.90;;;14.00;99.90;;;;;;4992950;28;20205;-61
2022/07/10 05:08:23;;;;;;;0.80;0.80;;;14.10;99.90;;;;;;4992873;28;20169;-61
2022/07/10 05:10:49;;;;;;;0.60;0.60;;;14.10;99.90;;;;;;4996692;28;20177;-61
2022/07/10 05:13:15;;;;;;;0.88;0.50;;;14.30;99.90;;;;;;4996651;28;20177;-60
2022/07/10 05:15:40;;;;;;;0.50;0.50;;;14.40;99.90;;;;;;4996221;28;20535;-61
2022/07/10 05:18:06;;;;;;;0.50;0.50;;;14.50;99.90;;;;;;4995563;28;20209;-61
2022/07/10 05:20:33;;;;;;;0.70;0.70;;;14.60;99.90;;;;;;4996519;28;20169;-61
2022/07/10 05:22:58;;;;;;;0.60;0.60;;;14.70;99.90;;;;;;4996542;28;20637;-61
2022/07/10 05:25:26;;;;;;;0.50;0.50;;;14.90;99.90;;;;;;4996514;28;20217;-58
2022/07/10 05:27:52;;;;;;;0.75;0.60;;;14.90;99.90;;;;;;4996318;28;20189;-58
2022/07/10 05:30:17;;;;;;;1.77;1.00;;;15.00;99.90;;;;;;4996381;28;20181;-58
2022/07/10 05:32:46;;;;;;;1.05;0.90;;;15.00;99.90;;;;;;4995200;28;20192;-61
2022/07/10 05:35:14;;;;;;;0.50;0.50;;;15.10;99.90;;;;;;4996353;28;20255;-61
2022/07/10 05:37:39;;;;;;;0.45;0.45;;;15.20;99.90;;;;;;4996012;28;20197;-58
2022/07/10 05:40:06;;;;;;;0.60;0.50;;;15.20;99.90;;;;;;4994895;28;20181;-61
2022/07/10 05:42:32;;;;;;;0.50;0.50;;;15.30;99.90;;;;;;4995932;28;20647;-60
2022/07/10 05:44:57;;;;;;;0.50;0.50;;;15.40;99.90;;;;;;4978636;28;20184;-59
2022/07/10 05:47:23;;;;;;;0.40;0.40;;;15.50;99.90;;;;;;4996059;28;20647;-59
2022/07/10 05:49:48;;;;;;;0.43;0.43;;;15.60;99.90;;;;;;4996309;28;20207;-59
2022/07/10 05:52:14;;;;;;;0.40;0.40;;;15.70;99.90;;;;;;4994765;28;20265;-58
2022/07/10 05:54:40;;;;;;;0.60;0.60;;;15.80;99.90;;;;;;4995890;28;20217;-58
2022/07/10 05:57:06;;;;;;;0.82;0.40;;;16.00;99.90;;;;;;4995780;28;20181;-59
2022/07/10 05:59:34;;;;;;;0.50;0.50;;;16.00;99.90;;;;;;4995832;28;20181;-59
2022/07/10 06:02:01;;;;;;;0.30;0.30;;;16.00;99.90;;;;;;4995738;28;20602;-59
2022/07/10 06:04:27;;;;;;;0.40;0.40;;;16.00;99.90;;;;;;4994544;28;20178;-59
2022/07/10 06:06:52;;;;;;;0.57;0.40;;;16.10;99.90;;;;;;4995651;28;20685;-58
2022/07/10 06:09:18;;;;;;;0.40;0.40;;;16.30;99.90;;;;;;4995675;28;20183;-61
2022/07/10 06:11:45;;;;;;;0.50;0.50;;;16.30;99.90;;;;;;4995440;28;20236;-59
2022/07/10 06:14:12;;;;;;;0.40;0.40;;;16.30;99.90;;;;;;4994330;28;20181;-59
2022/07/10 06:16:38;;;;;;;0.40;0.40;;;16.30;99.90;;;;;;4994377;28;20212;-59
2022/07/10 06:19:03;;;;;;;0.63;0.45;;;16.30;99.90;;;;;;4994305;28;20177;-57
2022/07/10 06:21:29;;;;;;;0.35;0.35;;;16.30;99.90;;;;;;4994454;28;20184;-59
2022/07/10 06:23:55;;;;;;;0.40;0.40;;;16.50;99.90;;;;;;4994180;28;20220;-59
2022/07/10 06:26:20;;;;;;;0.30;0.30;;;16.50;99.90;;;;;;4995178;28;20663;-59
2022/07/10 06:28:46;;;;;;;0.40;0.40;;;16.50;99.90;;;;;;4995440;28;20658;-59
2022/07/10 06:31:12;;;;;;;0.50;0.35;;;16.70;99.90;;;;;;4995106;28;20572;-59
2022/07/10 06:33:38;;;;;;;0.40;0.40;;;16.70;99.90;;;;;;4995191;28;20638;-59
2022/07/10 06:36:04;;;;;;;0.38;0.38;;;16.80;99.90;;;;;;4995222;28;20186;-59
2022/07/10 06:38:30;;;;;;;0.50;0.47;;;16.90;99.90;;;;;;4995215;28;20227;-59
2022/07/10 06:40:56;;;;;;;0.32;0.32;;;17.00;99.90;;;;;;4994953;28;20286;-58
2022/07/10 06:43:22;;;;;;;1.60;0.40;;;17.10;99.90;;;;;;4995217;28;20173;-59
2022/07/10 06:45:47;;;;;;;0.50;0.50;;;17.10;99.90;;;;;;4994817;28;20263;-59
2022/07/10 06:48:14;;;;;;;0.30;0.30;;;17.00;99.90;;;;;;4993892;28;20190;-59
2022/07/10 06:50:40;;;;;;;0.35;0.35;;;17.00;99.90;;;;;;4994912;28;20635;-58
2022/07/10 06:53:06;;;;;;;0.30;0.30;;;17.00;99.90;;;;;;4994784;28;20177;-59
2022/07/10 06:55:33;;;;;;;0.43;0.43;;;17.10;99.90;;;;;;4994544;28;20177;-59
2022/07/10 06:57:59;;;;;;;0.63;0.40;;;17.10;99.90;;;;;;4994424;28;20173;-59
2022/07/10 07:00:25;;;;;;;0.60;0.40;;;16.90;99.90;;;;;;4994882;28;20177;-59
2022/07/10 07:02:51;;;;;;;0.20;0.20;;;17.00;99.90;;;;;;4994734;28;20527;-59
2022/07/10 07:05:16;;;;;;;0.28;0.28;;;17.00;99.90;;;;;;4994899;28;20174;-58
2022/07/10 07:07:42;;;;;;;0.22;0.22;;;17.00;99.90;;;;;;4994575;28;20579;-59
2022/07/10 07:10:10;;;;;;;0.65;0.30;;;17.00;99.90;;;;;;4994450;28;20220;-59
2022/07/10 07:12:36;;;;;;;0.65;0.60;;;17.10;99.90;;;;;;4994678;28;20260;-59
2022/07/10 07:15:02;;;;;;;0.20;0.20;;;17.10;99.90;;;;;;4994626;28;20223;-60
2022/07/10 07:17:35;;;;;;;0.40;0.40;;;17.10;99.90;;;;;;4992993;28;20288;-59
2022/07/10 07:25:30;;;;;;;0.30;0.30;;;17.30;99.90;;;;;;4994477;28;20305;-59
2022/07/10 07:27:56;;;;;;;0.40;0.40;;;17.40;99.90;;;;;;4991722;28;20550;-59
2022/07/10 07:30:22;;;;;;;1.25;0.47;;;17.50;99.90;;;;;;4993404;28;20208;-59
2022/07/10 07:32:48;;;;;;;0.40;0.40;;;17.70;99.90;;;;;;4993620;28;20184;-59
2022/07/10 07:35:15;;;;;;;0.22;0.22;;;17.80;99.90;;;;;;4992446;28;20185;-59
2022/07/10 07:37:43;;;;;;;0.45;0.45;;;17.90;99.90;;;;;;4992327;28;20602;-58
2022/07/10 07:40:11;;;;;;;0.50;0.50;;;18.00;99.90;;;;;;4992540;28;20259;-59
2022/07/10 07:42:37;;;;;;;0.40;0.40;;;17.90;99.90;;;;;;4993812;28;20642;-59
2022/07/10 07:45:04;;;;;;;0.50;0.50;;;17.90;99.90;;;;;;4993316;28;20192;-57
2022/07/10 07:47:31;;;;;;;0.43;0.43;;;17.90;99.90;;;;;;4993523;28;20691;-59
2022/07/10 07:50:01;;;;;;;0.50;0.50;;;18.10;99.90;;;;;;4992413;28;20209;-59
2022/07/10 07:52:26;;;;;;;0.38;0.38;;;18.20;99.90;;;;;;4992361;28;20658;-59
2022/07/10 07:54:52;;;;;;;0.35;0.35;;;18.40;99.90;;;;;;4993605;28;20185;-58
2022/07/10 07:57:18;;;;;;;0.55;0.40;;;18.60;99.90;;;;;;4993296;28;20708;-59
2022/07/10 07:59:44;;;;;;;0.45;0.45;;;18.40;99.90;;;;;;4993479;28;20693;-59
2022/07/10 08:02:10;;;;;;;0.60;0.52;;;18.70;99.90;;;;;;4992115;28;20177;-59
2022/07/10 08:04:35;;;;;;;0.38;0.38;;;18.70;99.90;;;;;;4992184;28;20186;-58
2022/07/10 08:07:02;;;;;;;0.38;0.30;;;18.60;99.90;;;;;;4993057;28;20217;-59
2022/07/10 08:09:27;;;;;;;1.75;0.40;;;18.70;99.90;;;;;;4975689;28;20189;-58
2022/07/10 08:11:53;;;;;;;0.40;0.40;;;18.70;99.90;;;;;;4992090;28;20195;-59
2022/07/10 08:14:19;;;;;;;0.57;0.30;;;18.90;99.90;;;;;;4993953;28;20329;-59
2022/07/10 08:16:44;;;;;;;0.30;0.30;;;18.70;99.90;;;;;;4991257;28;20193;-59
2022/07/10 08:19:10;;;;;;;0.30;0.30;;;18.70;99.90;;;;;;4992129;28;20598;-59
2022/07/10 08:21:36;;;;;;;0.32;0.30;;;18.90;99.90;;;;;;4993513;28;20232;-59
2022/07/10 08:24:01;;;;;;;0.43;0.40;;;19.10;99.90;;;;;;4993320;28;20315;-59
2022/07/10 08:26:27;;;;;;;0.38;0.38;;;19.30;99.90;;;;;;4975661;28;20761;-59
2022/07/10 08:28:52;;;;;;;0.30;0.28;;;19.40;99.90;;;;;;4993277;28;20662;-60
2022/07/10 08:31:18;;;;;;;0.45;0.45;;;19.40;99.90;;;;;;4991364;28;20173;-58
2022/07/10 08:33:44;;;;;;;0.75;0.47;;;19.30;99.90;;;;;;4991080;28;20185;-60
2022/07/10 08:36:10;;;;;;;0.55;0.50;;;19.20;99.90;;;;;;4992003;28;20627;-60
2022/07/10 08:38:35;;;;;;;0.55;0.43;;;19.30;99.90;;;;;;4993241;28;20181;-60
2022/07/10 08:41:05;;;;;;;2.08;0.70;;;19.70;99.90;;;;;;4993425;28;20178;-60
2022/07/10 08:43:31;;;;;;;0.50;0.50;;;19.80;99.90;;;;;;4992381;28;20611;-60
2022/07/10 08:45:58;;;;;;;0.55;0.47;;;20.00;99.90;;;;;;4992917;28;20300;-60
2022/07/10 08:48:24;;;;;;;0.38;0.38;;;20.00;99.90;;;;;;4993180;28;20516;-60
2022/07/10 08:50:56;;;;;;;1.45;0.73;;;20.00;99.90;;;;;;4993306;28;20178;-60
2022/07/10 08:53:32;;;;;;;1.27;0.50;;;19.90;99.90;;;;;;4993033;28;20184;-60
2022/07/10 08:55:58;;;;;;;0.35;0.35;;;20.20;99.90;;;;;;4992939;28;20642;-60
2022/07/10 08:58:26;;;;;;;0.57;0.52;;;20.30;99.90;;;;;;4991589;28;20173;-60
2022/07/10 09:00:51;;;;;;;3.95;0.60;;;20.10;99.90;;;;;;4993022;28;20252;-57
2022/07/10 09:03:17;;;;;;;0.43;0.43;;;20.10;99.90;;;;;;4992753;28;20216;-59
2022/07/10 09:05:43;;;;;;;0.60;0.60;;;20.10;99.90;;;;;;4992885;28;20216;-60
2022/07/10 09:08:31;;;;;;;0.38;0.38;;;20.40;99.90;;;;;;4993037;28;20519;-60
2022/07/10 09:11:19;;;;;;;0.50;0.50;;;20.80;99.90;;;;;;4993664;28;20252;-60
2022/07/10 09:13:56;;;;;;;0.28;0.28;;;20.80;99.90;;;;;;4993777;28;20237;-60
2022/07/10 09:16:32;;;;;;;0.40;0.40;;;21.10;99.90;;;;;;4993457;28;20586;-60
2022/07/10 09:19:22;;;;;;;0.47;0.35;;;21.30;99.90;;;;;;4993527;28;20165;-60
2022/07/10 09:21:50;;;;;;;0.30;0.30;;;20.70;99.90;;;;;;4993739;28;20177;-60
2022/07/10 09:24:19;;;;;;;0.63;0.40;;;20.90;99.90;;;;;;4993802;28;20177;-59
2022/07/10 09:27:03;;;;;;;0.40;0.40;;;21.10;99.90;;;;;;4992114;28;20223;-60
2022/07/10 09:29:29;;;;;;;1.10;0.40;;;21.10;99.90;;;;;;4992346;28;20177;-60
2022/07/10 09:32:00;;;;;;;0.98;0.60;;;21.10;99.90;;;;;;4992088;28;20528;-60
2022/07/10 09:34:45;;;;;;;0.73;0.57;;;20.70;99.90;;;;;;4993485;28;20178;-60
2022/07/10 09:37:21;;;;;;;0.45;0.45;;;20.80;99.90;;;;;;4993646;28;20570;-61
2022/07/10 09:39:59;;;;;;;0.30;0.30;;;20.70;99.90;;;;;;4993530;28;20193;-60
2022/07/10 09:42:30;;;;;;;0.40;0.40;;;21.20;99.90;;;;;;4993643;28;20177;-60
2022/07/10 09:45:14;;;;;;;0.70;0.32;;;21.40;99.90;;;;;;4993418;28;20182;-61
2022/07/10 09:47:41;;;;;;;0.65;0.60;;;21.40;99.90;;;;;;4993226;28;20243;-59
2022/07/10 09:50:28;;;;;;;0.55;0.40;;;21.40;99.90;;;;;;4992231;28;20165;-61
2022/07/10 09:52:58;;;;;;;0.30;0.30;;;21.50;99.90;;;;;;4993476;28;20721;-60
2022/07/10 09:55:29;;;;;;;0.45;0.45;;;21.10;99.90;;;;;;4994957;28;20169;-61
2022/07/10 09:58:00;;;;;;;0.50;0.50;;;21.30;99.90;;;;;;4996820;28;20181;-61
2022/07/10 10:00:37;;;;;;;0.50;0.50;;;21.60;99.90;;;;;;4995494;28;20184;-60
2022/07/10 10:03:09;;;;;;;0.50;0.50;;;21.80;99.90;;;;;;4996633;28;20177;-61
2022/07/10 10:06:00;;;;;;;0.28;0.28;;;21.60;99.90;;;;;;4996878;28;20305;-60
2022/07/10 10:08:36;;;;;;;0.32;0.32;;;21.60;99.90;;;;;;4996720;28;20631;-60
2022/07/10 10:11:04;;;;;;;0.45;0.45;;;21.60;99.90;;;;;;4996494;28;20271;-60
2022/07/10 10:13:33;;;;;;;0.30;0.30;;;21.50;99.90;;;;;;4996392;28;20173;-60
2022/07/10 10:15:59;;;;;;;0.38;0.38;;;21.80;99.90;;;;;;4995146;28;20193;-60
2022/07/10 10:18:26;;;;;;;0.73;0.40;;;22.30;99.90;;;;;;4995180;28;20185;-60
2022/07/10 10:20:54;;;;;;;0.65;0.52;;;22.50;99.90;;;;;;4995085;28;20264;-60
2022/07/10 10:23:22;;;;;;;0.50;0.50;;;22.30;99.90;;;;;;4996337;28;20184;-60
2022/07/10 10:25:49;;;;;;;0.90;0.40;;;22.00;99.90;;;;;;4994850;28;20209;-60
2022/07/10 10:28:16;;;;;;;0.38;0.38;;;21.70;99.90;;;;;;4996385;28;20220;-60
2022/07/10 10:30:46;;;;;;;0.43;0.43;;;21.80;99.90;;;;;;4995063;28;20169;-60
2022/07/10 10:33:42;;;;;;;2.15;0.50;;;22.10;99.90;;;;;;4996166;28;20173;-60
2022/07/10 10:36:12;;;;;;;1.85;0.50;;;22.30;99.90;;;;;;4995989;28;20313;-60
2022/07/10 10:38:55;;;;;;;0.75;0.63;;;22.40;99.90;;;;;;4995042;28;20623;-61
2022/07/10 10:41:31;;;;;;;0.45;0.45;;;22.20;99.90;;;;;;4996132;28;20539;-60
2022/07/10 10:44:09;;;;;;;0.75;0.40;;;21.80;99.90;;;;;;4995973;28;20231;-60
2022/07/10 10:47:00;;;;;;;0.40;0.40;;;21.40;99.90;;;;;;4995684;28;20208;-60
2022/07/10 10:49:26;;;;;;;1.35;0.50;;;21.40;99.90;;;;;;4995979;28;20177;-60
2022/07/10 10:51:55;;;;;;;1.25;0.57;;;21.50;99.90;;;;;;4995661;28;20653;-60
2022/07/10 10:54:21;;;;;;;1.45;0.32;;;21.60;99.90;;;;;;4995760;28;20173;-60
2022/07/10 10:57:16;;;;;;;0.43;0.30;;;21.70;99.90;;;;;;4995567;28;20280;-60
2022/07/10 10:59:46;;;;;;;0.70;0.65;;;22.00;99.90;;;;;;4995923;28;20182;-60
2022/07/10 11:02:23;;;;;;;0.60;0.55;;;22.00;99.90;;;;;;4994275;28;20181;-60
2022/07/10 11:04:52;;;;;;;0.70;0.50;;;22.20;99.90;;;;;;4995506;28;20185;-60
2022/07/10 11:07:55;;;;;;;1.52;1.10;;;21.80;99.90;;;;;;4994635;28;20682;-60
2022/07/10 11:10:33;;;;;;;0.65;0.50;;;21.70;99.90;;;;;;4995467;28;20181;-60
2022/07/10 11:13:25;;;;;;;0.45;0.40;;;21.80;99.90;;;;;;4995438;28;20196;-60
2022/07/10 11:15:51;;;;;;;0.68;0.40;;;22.10;99.90;;;;;;4994897;28;20689;-60
2022/07/10 11:18:21;;;;;;;1.55;0.50;;;22.30;99.90;;;;;;4995443;28;20185;-60
2022/07/10 11:20:49;;;;;;;0.47;0.32;;;22.10;99.90;;;;;;4995475;28;20624;-60
2022/07/10 11:23:46;;;;;;;0.50;0.50;;;22.10;99.90;;;;;;4995153;28;20527;-57
2022/07/10 11:26:20;;;;;;;0.68;0.40;;;21.90;99.90;;;;;;4994929;28;20271;-60
2022/07/10 11:28:51;;;;;;;0.32;0.32;;;21.70;99.90;;;;;;4995304;28;20518;-60
2022/07/10 11:31:18;;;;;;;0.60;0.45;;;21.80;99.90;;;;;;4993854;28;20188;-60
2022/07/10 11:33:51;;;;;;;0.30;0.30;;;22.10;99.90;;;;;;4995017;28;20646;-60
2022/07/10 11:36:25;;;;;;;2.10;0.65;;;22.20;99.90;;;;;;4995028;28;20192;-60
2022/07/10 11:38:58;;;;;;;0.43;0.35;;;22.40;99.90;;;;;;4994842;28;20259;-60
2022/07/10 11:41:24;;;;;;;1.17;0.43;;;22.60;99.90;;;;;;4995157;28;20180;-60
2022/07/10 11:43:51;;;;;;;0.63;0.63;;;22.50;99.90;;;;;;4994865;28;20239;-60
2022/07/10 11:46:18;;;;;;;0.70;0.47;;;22.40;99.90;;;;;;4994716;28;20205;-59
2022/07/10 11:48:44;;;;;;;1.05;0.47;;;22.10;99.90;;;;;;4993530;28;20181;-60
2022/07/10 11:51:18;;;;;;;0.30;0.30;;;22.30;99.90;;;;;;4994482;28;20695;-60
2022/07/10 11:54:01;;;;;;;0.38;0.38;;;22.50;99.90;;;;;;4994750;28;20178;-60
2022/07/10 11:56:32;;;;;;;0.80;0.47;;;22.70;99.90;;;;;;4994596;28;20639;-61
2022/07/10 11:59:07;;;;;;;0.38;0.35;;;22.60;99.90;;;;;;4994599;28;20710;-60
2022/07/10 12:01:35;;;;;;;1.27;0.38;;;22.60;99.90;;;;;;4994404;28;20166;-60
2022/07/10 12:04:03;;;;;;;0.68;0.40;;;23.00;99.90;;;;;;4994299;28;20236;-62
2022/07/10 12:06:31;;;;;;;0.70;0.45;;;23.00;99.90;;;;;;4993331;28;20260;-61
2022/07/10 12:09:04;;;;;;;0.52;0.40;;;22.70;99.60;;;;;;4993285;28;20173;-61
2022/07/10 12:11:30;;;;;;;0.52;0.40;;;22.20;99.90;;;;;;4994336;28;20180;-61
2022/07/10 12:14:08;;;;;;;0.25;0.25;;;22.10;99.90;;;;;;4994171;28;20267;-61
2022/07/10 12:16:37;;;;;;;0.82;0.40;;;22.20;99.90;;;;;;4994056;28;20193;-62
2022/07/10 12:19:05;;;;;;;0.52;0.40;;;22.30;99.90;;;;;;4993281;28;20177;-60
2022/07/10 12:21:32;;;;;;;1.02;0.95;;;22.60;99.90;;;;;;4994217;28;20169;-61
2022/07/10 12:23:59;;;;;;;0.60;0.50;;;22.80;99.90;;;;;;4993913;28;20642;-61
2022/07/10 12:26:32;;;;;;;0.32;0.32;;;23.00;99.90;;;;;;4993990;28;20212;-61
2022/07/10 12:28:58;;;;;;;0.30;0.30;;;22.30;99.90;;;;;;4993947;28;20173;-61
2022/07/10 12:31:29;;;;;;;1.58;0.60;;;22.50;99.90;;;;;;4994011;28;20268;-61
2022/07/10 12:34:01;;;;;;;0.22;0.22;;;22.80;99.90;;;;;;4994223;28;20181;-61
2022/07/10 12:36:48;;;;;;;1.55;0.43;;;23.00;99.90;;;;;;4993983;28;20185;-55
2022/07/10 12:39:15;;;;;;;1.65;0.50;;;22.90;99.90;;;;;;4993823;28;20169;-59
2022/07/10 12:42:00;;;;;;;0.40;0.40;;;22.50;99.90;;;;;;4993851;28;20619;-58
2022/07/10 12:44:41;;;;;;;0.30;0.30;;;22.40;99.90;;;;;;4992766;28;20188;-59
2022/07/10 12:47:19;;;;;;;0.52;0.20;;;22.60;99.90;;;;;;4993855;28;20216;-59
2022/07/10 12:50:01;;;;;;;0.35;0.35;;;22.70;99.90;;;;;;4993657;28;20642;-61
2022/07/10 12:52:27;;;;;;;0.40;0.40;;;22.70;99.90;;;;;;4992769;28;20180;-62
2022/07/10 12:55:25;;;;;;;1.05;0.40;;;22.70;99.90;;;;;;4993709;28;20641;-61
2022/07/10 12:57:58;;;;;;;1.05;0.40;;;23.20;99.90;;;;;;4993672;28;20188;-61
2022/07/10 13:00:26;;;;;;;0.40;0.40;;;23.50;99.90;;;;;;4994001;28;20234;-61
2022/07/10 13:03:08;;;;;;;0.57;0.50;;;23.60;99.90;;;;;;4993814;28;20176;-59
2022/07/10 13:05:40;;;;;;;0.25;0.25;;;23.50;99.80;;;;;;4993658;28;20582;-62